Raquette Lake, New York
Current Conditions -  °F | °C
As of 9:51 AM on Sunday 23 Nov 2014 (Local Time) from KSLK Reporting Station
Moderate Fog Moderate Fog  
Wind Chill: 35°   Ceiling: 200
Heat Index: 39°   Visibility: 0.5mi
Dew Point: 39°   Wind: 6mph
Humidity: 100%   Direction: 230°SW
Pressure: 30.03"   Gusts: NA
Location:  43.81°N, 74.66°W
Report Text: KSLK 231451Z AUTO 23005KT 1/2SM FG OVC002 04/04 A3003 RMK AO2 SLP181 60000 T00390039 51011
Loading
Personal Weather Stations






























Interactive Weather Map New forecast layout! Learn more

10-Day Weather Forecast

Advertisements
Track Severe Weather on mobile